KGLW

Details ICAO KGLW
Name GLASGOW MUNI
Region United States
Timezone America/Chicago (UTC-5.0)
Plans Departing 3
Arriving 14
Stats Elevation 715 ft / 218 m (AMSL)
Location 37.031779° -85.953754°
Runways 1
Magnetic Variation 4.519° W
Sunrise 2018-05-20 10:33:21 UTC / 2018-05-20 05:33:21 Local
Sunset 2018-05-21 00:50:12 UTC / 2018-05-20 19:50:12 Local
Advertisement - Login to hide

Runways

ID Width Length Bearing (true) Bearing (mag) Surface Threshold Offset Overrun Length
07 100 ft / 30 m 5,293 ft / 1,613 m 71.33° 75.85° Asphalt 0 ft / 0 m 0 ft / 0 m
25 100 ft / 30 m 5,293 ft / 1,613 m 251.34° 255.86° Asphalt 301 ft / 92 m 0 ft / 0 m

Approach Navaids

Runway Type Ident Frequency Range Bearing (true) Bearing (mag) Slope Elevation
07 Localiser IGLW 108.50 MHz 18 nm / 33 km 71.48° 76.00° - 715 ft / 218 m (AMSL)

Map

Weather


0- 5 10 15 20 25 30 35+ Temperature / ° C

Clouds and Precipitation
Forecast for 2018-05-21 06:00 UTC. Updated 31 minutes ago

Ground ~20,000 ft ~40,000 ft Winds

METAR

KGLW 210330Z AUTO 21003KT 10SM RA SCT090 OVC120 19/17 A3014 RMK AO2 P0004 T01930173

TAF

Not found

Frequencies

Recorded 118.52 MHz AWOS 3
Unicom 122.80 MHz CTAF/UNICOM
Warning: Do not use this data for real-world aviation or navigation. No guarantee of current accuracy is given.